createdAt,value
2019-04-28T00:01:11.302Z,0.80
2019-04-28T00:03:42.005Z,0.80
2019-04-28T00:06:12.053Z,0.85
2019-04-28T00:08:42.884Z,0.80
2019-04-28T00:11:12.859Z,0.80
2019-04-28T00:13:42.753Z,0.78
2019-04-28T00:16:12.634Z,1.12
2019-04-28T00:18:43.016Z,0.85
2019-04-28T00:21:23.386Z,1.00
2019-04-28T00:24:01.890Z,0.90
2019-04-28T00:26:40.840Z,0.90
2019-04-28T00:29:11.129Z,1.20
2019-04-28T00:31:41.460Z,1.10
2019-04-28T00:34:12.511Z,0.90
2019-04-28T00:36:44.773Z,1.10
2019-04-28T00:39:15.998Z,1.00
2019-04-28T00:41:45.796Z,0.90
2019-04-28T00:44:16.556Z,0.82
2019-04-28T00:46:46.773Z,1.25
2019-04-28T00:49:18.614Z,1.00
2019-04-28T00:51:48.327Z,0.90
2019-04-28T00:54:19.174Z,1.00
2019-04-28T00:56:49.115Z,1.10
2019-04-28T00:59:18.889Z,0.65
2019-04-28T01:01:53.291Z,0.90
2019-04-28T01:04:23.308Z,0.70
2019-04-28T01:06:53.729Z,0.60
2019-04-28T01:09:23.890Z,0.75
2019-04-28T01:11:53.712Z,0.80
2019-04-28T01:14:23.573Z,0.60
2019-04-28T01:16:59.765Z,0.68
2019-04-28T01:19:31.498Z,0.70
2019-04-28T01:22:10.370Z,0.70
2019-04-28T01:24:41.347Z,0.80
2019-04-28T01:27:13.967Z,0.70
2019-04-28T01:29:44.536Z,0.80
2019-04-28T01:32:20.302Z,0.72
2019-04-28T01:34:50.404Z,0.70
2019-04-28T01:37:20.182Z,0.70
2019-04-28T01:39:52.810Z,0.80
2019-04-28T01:42:22.662Z,0.82
2019-04-28T01:44:53.409Z,0.80
2019-04-28T01:47:23.237Z,0.70
2019-04-28T01:49:53.003Z,1.05
2019-04-28T01:52:23.990Z,0.70
2019-04-28T01:54:54.731Z,0.88
2019-04-28T01:57:24.722Z,0.90
2019-04-28T01:59:54.855Z,0.70
2019-04-28T02:02:24.771Z,0.80
2019-04-28T02:04:55.064Z,1.00
2019-04-28T02:07:25.200Z,1.10
2019-04-28T02:09:55.015Z,0.70
2019-04-28T02:12:24.803Z,0.88
2019-04-28T02:14:54.749Z,1.05
2019-04-28T02:17:24.572Z,0.80
2019-04-28T02:19:54.413Z,1.00
2019-04-28T02:22:26.463Z,1.00
2019-04-28T02:24:56.383Z,1.00
2019-04-28T02:27:27.534Z,1.10
2019-04-28T02:29:57.298Z,0.90
2019-04-28T02:32:27.125Z,1.00
2019-04-28T02:34:56.919Z,0.90
2019-04-28T02:37:27.440Z,1.22
2019-04-28T02:40:00.500Z,1.32
2019-04-28T02:42:31.055Z,1.22
2019-04-28T02:45:01.613Z,1.10
2019-04-28T02:47:33.990Z,1.35
2019-04-28T02:50:04.836Z,1.40
2019-04-28T02:52:52.522Z,1.52
2019-04-28T02:55:22.379Z,1.57
2019-04-28T02:57:52.157Z,1.50
2019-04-28T03:00:22.286Z,1.90
2019-04-28T03:02:52.721Z,1.57
2019-04-28T03:05:22.501Z,1.65
2019-04-28T03:07:52.306Z,1.80
2019-04-28T03:10:22.368Z,1.67
2019-04-28T03:12:52.212Z,1.70
2019-04-28T03:15:22.045Z,2.00
2019-04-28T03:17:53.241Z,1.98
2019-04-28T03:20:23.603Z,1.75
2019-04-28T03:22:55.000Z,1.80
2019-04-28T03:25:44.914Z,1.90
2019-04-28T03:28:21.357Z,2.22
2019-04-28T03:31:06.598Z,2.20
2019-04-28T03:33:41.887Z,2.17
2019-04-28T03:36:08.886Z,2.20
2019-04-28T03:38:40.579Z,2.02
2019-04-28T03:41:11.396Z,2.65
2019-04-28T03:43:41.689Z,1.98
2019-04-28T03:46:30.456Z,1.92
2019-04-28T03:49:01.891Z,1.80
2019-04-28T03:51:31.719Z,2.50
2019-04-28T03:54:02.898Z,2.67
2019-04-28T03:56:33.878Z,2.62
2019-04-28T03:59:04.238Z,3.00
2019-04-28T04:01:34.011Z,2.90
2019-04-28T04:04:04.269Z,2.65
2019-04-28T04:06:34.052Z,2.75
2019-04-28T04:09:06.072Z,2.72
2019-04-28T04:11:44.390Z,2.90
2019-04-28T04:14:25.784Z,3.30
2019-04-28T04:17:01.129Z,3.12
2019-04-28T04:19:32.597Z,3.10
2019-04-28T04:22:02.952Z,2.92
2019-04-28T04:24:32.827Z,3.10
2019-04-28T04:27:02.649Z,3.12
2019-04-28T04:29:32.501Z,2.92
2019-04-28T04:32:15.620Z,3.15
2019-04-28T04:34:34.229Z,3.05
2019-04-28T04:37:04.019Z,3.12
2019-04-28T04:39:34.700Z,3.05
2019-04-28T04:42:05.786Z,2.90
2019-04-28T04:44:40.545Z,2.98
2019-04-28T04:47:07.486Z,2.98
2019-04-28T04:49:37.298Z,3.30
2019-04-28T04:52:10.389Z,2.83
2019-04-28T04:54:40.162Z,2.85
2019-04-28T04:57:11.094Z,2.67
2019-04-28T04:59:40.896Z,2.72
2019-04-28T05:02:28.334Z,2.90
2019-04-28T05:04:45.383Z,2.85
2019-04-28T05:07:15.789Z,3.30
2019-04-28T05:09:45.564Z,3.02
2019-04-28T05:12:15.929Z,2.95
2019-04-28T05:14:45.709Z,2.72
2019-04-28T05:17:15.565Z,3.00
2019-04-28T05:19:45.386Z,2.55
2019-04-28T05:22:17.206Z,3.00
2019-04-28T05:24:54.371Z,3.02
2019-04-28T05:27:25.644Z,3.00
2019-04-28T05:29:56.898Z,2.95
2019-04-28T05:32:39.357Z,2.80
2019-04-28T05:35:00.151Z,2.75
2019-04-28T05:37:29.991Z,3.25
2019-04-28T05:40:00.800Z,2.37
2019-04-28T05:42:31.811Z,2.80
2019-04-28T05:45:01.635Z,3.00
2019-04-28T05:47:32.126Z,2.90
2019-04-28T05:50:10.622Z,2.80
2019-04-28T05:52:56.431Z,2.92
2019-04-28T05:55:41.878Z,2.80
2019-04-28T05:58:13.771Z,2.80
2019-04-28T06:00:56.483Z,2.92
2019-04-28T06:03:30.175Z,2.72
2019-04-28T06:06:00.278Z,2.87
2019-04-28T06:08:34.473Z,2.92
2019-04-28T06:11:05.884Z,2.92
2019-04-28T06:13:35.866Z,2.72
2019-04-28T06:16:06.255Z,3.17
2019-04-28T06:18:36.670Z,2.47
2019-04-28T06:21:06.462Z,2.92
2019-04-28T06:23:36.473Z,2.47
2019-04-28T06:26:06.813Z,2.83
2019-04-28T06:28:37.600Z,2.77
2019-04-28T06:31:07.421Z,2.85
2019-04-28T06:33:37.584Z,2.67
2019-04-28T06:36:07.351Z,2.37
2019-04-28T06:38:37.413Z,2.90
2019-04-28T06:41:07.228Z,3.00
2019-04-28T06:43:37.353Z,2.60
2019-04-28T06:46:07.172Z,2.95
2019-04-28T06:48:37.258Z,2.95
2019-04-28T06:51:07.296Z,2.22
2019-04-28T06:53:37.313Z,2.67
2019-04-28T06:56:07.834Z,3.20
2019-04-28T06:58:37.614Z,2.70
2019-04-28T07:01:07.456Z,2.55
2019-04-28T07:03:37.253Z,2.83
2019-04-28T07:06:07.034Z,2.60
2019-04-28T07:08:36.966Z,2.95
2019-04-28T07:11:06.781Z,2.95
2019-04-28T07:13:36.941Z,2.62
2019-04-28T07:16:06.803Z,3.05
2019-04-28T07:18:36.837Z,2.92
2019-04-28T07:21:11.007Z,2.83
2019-04-28T07:23:41.892Z,2.75
2019-04-28T07:26:11.671Z,3.30
2019-04-28T07:28:41.760Z,2.80
2019-04-28T07:31:11.684Z,3.20
2019-04-28T07:33:41.712Z,2.90
2019-04-28T07:36:11.586Z,2.92
2019-04-28T07:38:43.421Z,3.15
2019-04-28T07:41:13.199Z,2.92
2019-04-28T07:43:44.147Z,3.30
2019-04-28T07:46:14.179Z,2.62
2019-04-28T07:48:43.965Z,3.17
2019-04-28T07:51:14.335Z,2.80
2019-04-28T07:53:45.823Z,3.10
2019-04-28T07:56:15.997Z,2.45
2019-04-28T07:58:46.380Z,2.75
2019-04-28T08:01:16.345Z,3.30
2019-04-28T08:03:49.654Z,2.80
2019-04-28T08:06:18.044Z,3.30
2019-04-28T08:08:48.541Z,2.45
2019-04-28T08:11:18.324Z,2.70
2019-04-28T08:13:49.299Z,3.30
2019-04-28T08:16:19.145Z,3.33
2019-04-28T08:18:48.974Z,3.00
2019-04-28T08:21:19.246Z,2.70
2019-04-28T08:23:49.200Z,3.10
2019-04-28T08:26:19.002Z,2.72
2019-04-28T08:28:49.627Z,3.00
2019-04-28T08:31:21.122Z,2.85
2019-04-28T08:34:02.034Z,2.52
2019-04-28T08:36:25.290Z,2.60
2019-04-28T08:38:55.134Z,3.02
2019-04-28T08:41:25.907Z,3.20
2019-04-28T08:43:56.543Z,2.55
2019-04-28T08:46:27.049Z,3.47
2019-04-28T08:48:57.566Z,2.62
2019-04-28T08:51:27.347Z,2.37
2019-04-28T08:53:58.555Z,2.67
2019-04-28T08:56:28.349Z,2.52
2019-04-28T08:58:59.156Z,2.33
2019-04-28T09:01:29.286Z,2.33
2019-04-28T09:03:59.366Z,2.30
2019-04-28T09:06:29.155Z,2.58
2019-04-28T09:08:59.198Z,2.27
2019-04-28T09:11:28.963Z,2.17
2019-04-28T09:13:59.973Z,2.25
2019-04-28T09:16:29.800Z,2.40
2019-04-28T09:19:00.481Z,1.92
2019-04-28T09:21:31.183Z,2.45
2019-04-28T09:24:03.617Z,2.58
2019-04-28T09:26:33.476Z,2.45
2019-04-28T09:29:03.878Z,2.08
2019-04-28T09:31:33.962Z,2.02
2019-04-28T09:34:03.918Z,2.22
2019-04-28T09:36:34.173Z,2.05
2019-04-28T09:39:05.971Z,2.25
2019-04-28T09:41:37.786Z,2.02
2019-04-28T09:44:16.579Z,2.15
2019-04-28T09:46:48.017Z,2.42
2019-04-28T09:49:18.730Z,2.00
2019-04-28T09:51:49.020Z,2.15
2019-04-28T09:54:18.865Z,2.67
2019-04-28T09:56:56.533Z,2.10
2019-04-28T09:59:20.861Z,2.50
2019-04-28T10:01:51.137Z,2.83
2019-04-28T10:04:20.918Z,2.70
2019-04-28T10:06:52.655Z,2.40
2019-04-28T10:09:22.373Z,1.98
2019-04-28T10:11:53.729Z,2.50
2019-04-28T10:14:24.441Z,2.55
2019-04-28T10:16:54.229Z,2.40
2019-04-28T10:19:25.426Z,2.27
2019-04-28T10:21:55.253Z,2.33
2019-04-28T10:24:25.203Z,2.50
2019-04-28T10:26:55.177Z,2.58
2019-04-28T10:29:24.983Z,2.58
2019-04-28T10:31:54.780Z,2.55
2019-04-28T10:34:25.447Z,2.25
2019-04-28T10:36:55.272Z,2.58
2019-04-28T10:39:29.620Z,2.10
2019-04-28T10:41:59.409Z,2.50
2019-04-28T10:44:31.531Z,3.00
2019-04-28T10:47:02.202Z,2.77
2019-04-28T10:49:32.947Z,3.33
2019-04-28T10:52:03.212Z,2.55
2019-04-28T10:54:33.710Z,2.72
2019-04-28T10:57:03.885Z,1.92
2019-04-28T10:59:33.736Z,1.70
2019-04-28T11:02:03.605Z,1.50
2019-04-28T11:04:41.218Z,1.45
2019-04-28T11:07:15.663Z,1.22
2019-04-28T11:09:47.055Z,1.40
2019-04-28T11:12:22.029Z,1.50
2019-04-28T11:14:52.533Z,2.40
2019-04-28T11:17:24.950Z,1.82
2019-04-28T11:19:55.150Z,2.00
2019-04-28T11:22:25.448Z,1.85
2019-04-28T11:24:55.906Z,2.40
2019-04-28T11:27:26.766Z,1.82
2019-04-28T11:29:56.598Z,2.12
2019-04-28T11:32:26.370Z,2.05
2019-04-28T11:34:58.784Z,2.10
2019-04-28T11:37:28.596Z,2.80
2019-04-28T11:39:58.918Z,2.33
2019-04-28T11:42:28.843Z,2.47
2019-04-28T11:45:01.779Z,3.67
2019-04-28T11:47:31.860Z,2.52
2019-04-28T11:50:01.638Z,2.22
2019-04-28T11:52:31.459Z,1.70
2019-04-28T11:55:01.696Z,1.50
2019-04-28T11:57:31.467Z,1.98
2019-04-28T12:00:01.457Z,1.85
2019-04-28T12:02:31.463Z,2.10
2019-04-28T12:05:01.327Z,2.37
2019-04-28T12:07:31.172Z,2.85
2019-04-28T12:10:09.186Z,2.92
2019-04-28T12:12:46.825Z,2.42
2019-04-28T12:15:33.527Z,3.05
2019-04-28T12:18:05.462Z,2.58
2019-04-28T12:20:35.341Z,2.67
2019-04-28T12:23:05.369Z,2.90
2019-04-28T12:25:35.209Z,2.87
2019-04-28T12:28:05.065Z,2.92
2019-04-28T12:30:34.775Z,2.98
2019-04-28T12:33:04.926Z,2.67
2019-04-28T12:35:46.706Z,2.95
2019-04-28T12:38:06.505Z,2.50
2019-04-28T12:40:36.611Z,2.35
2019-04-28T12:43:07.420Z,2.52
2019-04-28T12:45:37.216Z,2.80
2019-04-28T12:48:07.064Z,2.55
2019-04-28T12:50:44.912Z,3.00
2019-04-28T12:53:14.732Z,2.67
2019-04-28T12:55:44.515Z,2.42
2019-04-28T12:58:14.628Z,3.08
2019-04-28T13:01:02.515Z,2.58
2019-04-28T13:03:39.766Z,2.65
2019-04-28T13:06:12.182Z,2.87
2019-04-28T13:08:41.978Z,2.98
2019-04-28T13:11:12.121Z,3.85
2019-04-28T13:13:42.838Z,3.67
2019-04-28T13:16:13.308Z,5.62
2019-04-28T13:18:44.086Z,3.20
2019-04-28T13:21:13.925Z,3.00
2019-04-28T13:23:45.020Z,2.22
2019-04-28T13:26:14.886Z,5.80
2019-04-28T13:28:46.008Z,3.58
2019-04-28T13:31:15.827Z,4.20
2019-04-28T13:33:55.744Z,3.52
2019-04-28T13:36:19.028Z,2.60
2019-04-28T13:38:49.319Z,2.70
2019-04-28T13:41:19.111Z,3.08
2019-04-28T13:43:50.937Z,4.10
2019-04-28T13:46:20.729Z,3.22
2019-04-28T13:48:51.745Z,4.03
2019-04-28T13:51:21.547Z,3.30
2019-04-28T13:53:51.489Z,2.87
2019-04-28T13:56:22.157Z,3.40
2019-04-28T13:58:53.631Z,3.00
2019-04-28T14:01:43.170Z,2.83
2019-04-28T14:04:17.988Z,2.72
2019-04-28T14:06:50.260Z,3.30
2019-04-28T14:09:21.179Z,2.58
2019-04-28T14:11:51.020Z,2.40
2019-04-28T14:14:21.019Z,2.52
2019-04-28T14:16:51.220Z,2.95
2019-04-28T14:19:21.026Z,2.80
2019-04-28T14:21:50.803Z,2.58
2019-04-28T14:24:20.823Z,2.33
2019-04-28T14:26:50.645Z,2.77
2019-04-28T14:29:20.431Z,2.30
2019-04-28T14:31:50.841Z,2.85
2019-04-28T14:34:20.746Z,2.70
2019-04-28T14:36:50.546Z,3.27
2019-04-28T14:39:20.831Z,3.05
2019-04-28T14:41:50.644Z,3.00
2019-04-28T14:44:20.533Z,3.08
2019-04-28T14:46:50.905Z,2.90
2019-04-28T14:49:20.774Z,2.92
2019-04-28T14:51:50.556Z,2.85
2019-04-28T14:54:20.568Z,2.70
2019-04-28T14:56:50.367Z,2.55
2019-04-28T14:59:20.144Z,2.30
2019-04-28T15:02:10.459Z,3.02
2019-04-28T15:04:58.336Z,2.87
2019-04-28T15:07:41.799Z,3.50
2019-04-28T15:10:16.016Z,2.92
2019-04-28T15:12:46.669Z,2.27
2019-04-28T15:15:19.713Z,2.85
2019-04-28T15:17:48.795Z,3.00
2019-04-28T15:20:18.865Z,3.27
2019-04-28T15:22:49.577Z,2.85
2019-04-28T15:25:19.400Z,2.83
2019-04-28T15:27:50.677Z,2.83
2019-04-28T15:30:20.553Z,3.22
2019-04-28T15:32:51.129Z,3.02
2019-04-28T15:35:20.982Z,3.58
2019-04-28T15:37:50.830Z,3.65
2019-04-28T15:40:20.987Z,3.50
2019-04-28T15:42:50.937Z,3.00
2019-04-28T15:45:20.749Z,3.33
2019-04-28T15:47:50.937Z,3.12
2019-04-28T15:50:20.747Z,2.75
2019-04-28T15:52:50.714Z,3.92
2019-04-28T15:55:22.455Z,3.47
2019-04-28T15:57:53.217Z,3.02
2019-04-28T16:00:23.211Z,4.08
2019-04-28T16:02:53.356Z,3.65
2019-04-28T16:05:23.234Z,3.92
2019-04-28T16:07:54.013Z,3.50
2019-04-28T16:10:23.767Z,3.15
2019-04-28T16:12:53.690Z,3.22
2019-04-28T16:15:23.769Z,3.77
2019-04-28T16:17:54.952Z,4.00
2019-04-28T16:20:25.015Z,3.40
2019-04-28T16:22:56.049Z,3.60
2019-04-28T16:25:25.843Z,3.75
2019-04-28T16:27:56.426Z,3.70
2019-04-28T16:30:26.220Z,3.75
2019-04-28T16:32:57.406Z,3.58
2019-04-28T16:35:27.234Z,4.20
2019-04-28T16:37:57.039Z,3.65
2019-04-28T16:40:32.210Z,4.00
2019-04-28T16:43:06.785Z,3.87
2019-04-28T16:45:36.568Z,3.27
2019-04-28T16:48:07.237Z,3.50
2019-04-28T16:50:37.101Z,4.03
2019-04-28T16:53:06.910Z,4.42
2019-04-28T16:55:47.920Z,3.50
2019-04-28T16:58:32.273Z,3.90
2019-04-28T17:01:06.874Z,3.95
2019-04-28T17:03:37.943Z,4.10
2019-04-28T17:06:07.741Z,4.78
2019-04-28T17:08:37.778Z,4.08
2019-04-28T17:11:08.547Z,3.72
2019-04-28T17:13:39.289Z,3.80
2019-04-28T17:16:09.117Z,3.55
2019-04-28T17:18:39.533Z,15.43
2019-04-28T17:21:09.318Z,31.27
2019-04-28T17:23:39.681Z,12.00
2019-04-28T17:26:11.372Z,3.75
2019-04-28T17:28:41.365Z,4.60
2019-04-28T17:31:12.419Z,5.15
2019-04-28T17:33:42.303Z,4.53
2019-04-28T17:36:13.190Z,4.30
2019-04-28T17:38:43.016Z,4.20
2019-04-28T17:41:12.913Z,4.25
2019-04-28T17:43:42.938Z,4.30
2019-04-28T17:46:13.054Z,4.40
2019-04-28T17:49:00.917Z,3.90
2019-04-28T17:51:30.725Z,4.80
2019-04-28T17:54:00.513Z,4.20
2019-04-28T17:56:31.096Z,4.25
2019-04-28T17:59:01.249Z,12.25
2019-04-28T18:01:38.609Z,9.00
2019-04-28T18:04:13.184Z,5.17
2019-04-28T18:06:47.584Z,4.50
2019-04-28T18:09:17.753Z,4.30
2019-04-28T18:11:47.952Z,4.90
2019-04-28T18:14:17.749Z,14.58
2019-04-28T18:17:03.511Z,13.98
2019-04-28T18:19:33.378Z,16.30
2019-04-28T18:22:03.668Z,7.28
2019-04-28T18:24:33.531Z,5.83
2019-04-28T18:27:03.373Z,5.15
2019-04-28T18:29:33.994Z,5.78
2019-04-28T18:32:20.509Z,8.68
2019-04-28T18:34:58.617Z,6.95
2019-04-28T18:37:48.318Z,8.78
2019-04-28T18:40:22.406Z,8.83
2019-04-28T18:43:08.366Z,6.67
2019-04-28T18:45:38.241Z,6.42
2019-04-28T18:48:08.007Z,6.53
2019-04-28T18:50:38.995Z,9.38
2019-04-28T18:53:09.768Z,12.80
2019-04-28T18:55:39.573Z,13.62
2019-04-28T18:58:09.405Z,11.88
2019-04-28T19:00:41.049Z,9.28
2019-04-28T19:03:11.715Z,9.63
2019-04-28T19:05:43.622Z,13.80
2019-04-28T19:08:15.775Z,11.20
2019-04-28T19:11:06.274Z,10.65
2019-04-28T19:13:45.237Z,6.10
2019-04-28T19:16:23.617Z,7.28
2019-04-28T19:18:57.153Z,7.95
2019-04-28T19:21:26.936Z,7.70
2019-04-28T19:23:56.785Z,7.22
2019-04-28T19:26:26.833Z,5.78
2019-04-28T19:28:56.611Z,7.70
2019-04-28T19:31:26.886Z,7.15
2019-04-28T19:33:56.677Z,6.92
2019-04-28T19:36:27.317Z,6.40
2019-04-28T19:39:03.334Z,6.85
2019-04-28T19:41:30.049Z,7.00
2019-04-28T19:44:00.753Z,6.58
2019-04-28T19:46:31.331Z,7.10
2019-04-28T19:49:01.323Z,7.00
2019-04-28T19:51:32.317Z,7.40
2019-04-28T19:54:03.422Z,9.85
2019-04-28T19:56:35.831Z,7.22
2019-04-28T19:59:10.445Z,7.58
2019-04-28T20:01:41.117Z,7.80
2019-04-28T20:04:11.021Z,14.07
2019-04-28T20:06:41.464Z,10.25
2019-04-28T20:09:11.270Z,12.58
2019-04-28T20:11:41.073Z,13.32
2019-04-28T20:14:11.409Z,10.95
2019-04-28T20:16:43.535Z,8.10
2019-04-28T20:19:13.325Z,9.55
2019-04-28T20:21:43.715Z,9.05
2019-04-28T20:24:13.850Z,9.05
2019-04-28T20:26:44.410Z,8.45
2019-04-28T20:29:14.238Z,8.30
2019-04-28T20:31:45.116Z,8.75
2019-04-28T20:34:15.839Z,8.85
2019-04-28T20:37:06.056Z,9.13
2019-04-28T20:39:35.838Z,8.15
2019-04-28T20:42:24.653Z,8.93
2019-04-28T20:44:55.312Z,8.00
2019-04-28T20:47:25.886Z,8.55
2019-04-28T20:49:56.229Z,8.05
2019-04-28T20:52:26.842Z,8.15
2019-04-28T20:54:56.629Z,7.95
2019-04-28T20:57:27.606Z,7.42
2019-04-28T20:59:57.409Z,7.00
2019-04-28T21:02:27.104Z,7.15
2019-04-28T21:04:57.657Z,7.12
2019-04-28T21:07:27.447Z,6.55
2019-04-28T21:09:58.236Z,6.35
2019-04-28T21:12:29.220Z,6.95
2019-04-28T21:15:09.468Z,6.35
2019-04-28T21:17:39.378Z,7.03
2019-04-28T21:20:10.030Z,7.97
2019-04-28T21:22:40.625Z,7.65
2019-04-28T21:25:10.917Z,6.62
2019-04-28T21:27:40.713Z,7.00
2019-04-28T21:30:11.323Z,7.00
2019-04-28T21:32:42.565Z,6.45
2019-04-28T21:35:12.348Z,6.70
2019-04-28T21:37:43.316Z,6.35
2019-04-28T21:40:14.814Z,6.78
2019-04-28T21:42:54.089Z,6.78
2019-04-28T21:45:42.038Z,6.22
2019-04-28T21:48:13.471Z,6.78
2019-04-28T21:50:43.268Z,6.70
2019-04-28T21:53:13.086Z,6.30
2019-04-28T21:55:43.314Z,6.60
2019-04-28T21:58:13.107Z,6.67
2019-04-28T22:00:48.847Z,7.67
2019-04-28T22:03:18.701Z,7.03
2019-04-28T22:05:49.691Z,8.08
2019-04-28T22:08:20.751Z,8.05
2019-04-28T22:10:50.945Z,7.00
2019-04-28T22:13:21.789Z,7.55
2019-04-28T22:15:52.663Z,7.17
2019-04-28T22:18:23.421Z,7.75
2019-04-28T22:20:53.198Z,7.72
2019-04-28T22:23:40.124Z,6.78
2019-04-28T22:26:12.349Z,8.23
2019-04-28T22:28:42.139Z,7.65
2019-04-28T22:31:12.464Z,8.23
2019-04-28T22:33:43.487Z,8.43
2019-04-28T22:36:13.271Z,7.95
2019-04-28T22:38:48.863Z,8.38
2019-04-28T22:41:18.781Z,8.00
2019-04-28T22:43:50.431Z,8.20
2019-04-28T22:46:29.848Z,8.60
2019-04-28T22:49:01.287Z,8.18
2019-04-28T22:51:31.877Z,9.35
2019-04-28T22:54:07.493Z,9.33
2019-04-28T22:56:40.575Z,8.95
2019-04-28T22:59:18.493Z,9.00
2019-04-28T23:01:50.378Z,9.08
2019-04-28T23:04:28.358Z,9.10
2019-04-28T23:06:58.143Z,8.80
2019-04-28T23:09:27.930Z,8.78
2019-04-28T23:11:57.796Z,7.90
2019-04-28T23:14:28.733Z,8.60
2019-04-28T23:16:58.597Z,8.98
2019-04-28T23:19:32.327Z,8.40
2019-04-28T23:22:08.638Z,8.33
2019-04-28T23:24:40.961Z,8.90
2019-04-28T23:27:11.780Z,8.55
2019-04-28T23:29:49.617Z,8.73
2019-04-28T23:32:22.993Z,9.20
2019-04-28T23:34:54.466Z,8.15
2019-04-28T23:37:25.543Z,8.35
2019-04-28T23:39:55.334Z,8.83
2019-04-28T23:42:27.105Z,8.50
2019-04-28T23:44:57.886Z,8.85
2019-04-28T23:47:27.683Z,8.58
2019-04-28T23:49:57.863Z,9.60
2019-04-28T23:52:35.357Z,9.43
2019-04-28T23:55:08.443Z,9.05
2019-04-28T23:57:38.232Z,10.65
